sensor_id;sensor_type;location;lat;lon;timestamp;pressure;altitude;pressure_sealevel;temperature;humidity
66524;BME280;53350;52.210;5.160;2024-03-25T00:00:19;100816.81;;;8.29;73.67
66524;BME280;53350;52.210;5.160;2024-03-25T00:02:45;100807.41;;;8.30;73.21
66524;BME280;53350;52.210;5.160;2024-03-25T00:05:12;100804.84;;;8.30;73.61
66524;BME280;53350;52.210;5.160;2024-03-25T00:07:40;100803.13;;;8.29;73.32
66524;BME280;53350;52.210;5.160;2024-03-25T00:10:07;100810.84;;;8.29;73.36
66524;BME280;53350;52.210;5.160;2024-03-25T00:12:33;100813.41;;;8.27;73.33
66524;BME280;53350;52.210;5.160;2024-03-25T00:15:00;100818.53;;;8.26;73.56
66524;BME280;53350;52.210;5.160;2024-03-25T00:17:27;100812.56;;;8.22;73.60
66524;BME280;53350;52.210;5.160;2024-03-25T00:19:53;100814.28;;;8.18;73.50
66524;BME280;53350;52.210;5.160;2024-03-25T00:22:20;100820.28;;;8.16;73.58
66524;BME280;53350;52.210;5.160;2024-03-25T00:24:47;100813.44;;;8.15;73.61
66524;BME280;53350;52.210;5.160;2024-03-25T00:27:12;100810.03;;;8.13;73.38
66524;BME280;53350;52.210;5.160;2024-03-25T00:29:39;100808.31;;;8.12;73.40
66524;BME280;53350;52.210;5.160;2024-03-25T00:32:05;100796.31;;;8.11;73.10
66524;BME280;53350;52.210;5.160;2024-03-25T00:34:33;100796.34;;;8.09;73.10
66524;BME280;53350;52.210;5.160;2024-03-25T00:36:59;100796.34;;;8.08;73.33
66524;BME280;53350;52.210;5.160;2024-03-25T00:39:26;100788.66;;;8.06;73.55
66524;BME280;53350;52.210;5.160;2024-03-25T00:41:52;100792.06;;;8.04;73.54
66524;BME280;53350;52.210;5.160;2024-03-25T00:44:18;100796.34;;;8.03;73.69
66524;BME280;53350;52.210;5.160;2024-03-25T00:46:44;100797.22;;;8.02;73.54
66524;BME280;53350;52.210;5.160;2024-03-25T00:49:11;100789.53;;;8.00;73.28
66524;BME280;53350;52.210;5.160;2024-03-25T00:51:38;100790.38;;;7.98;73.46
66524;BME280;53350;52.210;5.160;2024-03-25T00:54:04;100791.25;;;7.95;73.20
66524;BME280;53350;52.210;5.160;2024-03-25T00:56:30;100791.28;;;7.92;73.18
66524;BME280;53350;52.210;5.160;2024-03-25T00:58:57;100795.53;;;7.90;73.19
66524;BME280;53350;52.210;5.160;2024-03-25T01:01:23;100803.25;;;7.86;73.12
66524;BME280;53350;52.210;5.160;2024-03-25T01:03:50;100796.41;;;7.80;73.38
66524;BME280;53350;52.210;5.160;2024-03-25T01:06:15;100795.56;;;7.79;73.54
66524;BME280;53350;52.210;5.160;2024-03-25T01:08:43;100804.09;;;7.77;73.34
66524;BME280;53350;52.210;5.160;2024-03-25T01:11:09;100812.66;;;7.73;73.23
66524;BME280;53350;52.210;5.160;2024-03-25T01:13:35;100807.53;;;7.68;73.29
66524;BME280;53350;52.210;5.160;2024-03-25T01:16:01;100804.97;;;7.66;73.17
66524;BME280;53350;52.210;5.160;2024-03-25T01:18:27;100809.22;;;7.66;73.05
66524;BME280;53350;52.210;5.160;2024-03-25T01:20:53;100811.78;;;7.63;73.11
66524;BME280;53350;52.210;5.160;2024-03-25T01:23:20;100809.25;;;7.60;73.16
66524;BME280;53350;52.210;5.160;2024-03-25T01:25:46;100806.69;;;7.58;73.46
66524;BME280;53350;52.210;5.160;2024-03-25T01:28:13;100815.22;;;7.57;73.01
66524;BME280;53350;52.210;5.160;2024-03-25T01:30:38;100812.66;;;7.54;73.43
66524;BME280;53350;52.210;5.160;2024-03-25T01:33:05;100812.66;;;7.54;73.37
66524;BME280;53350;52.210;5.160;2024-03-25T01:35:30;100811.81;;;7.52;73.13
66524;BME280;53350;52.210;5.160;2024-03-25T01:37:57;100813.50;;;7.48;73.20
66524;BME280;53350;52.210;5.160;2024-03-25T01:40:23;100810.94;;;7.45;73.42
66524;BME280;53350;52.210;5.160;2024-03-25T01:42:56;100813.53;;;7.42;73.08
66524;BME280;53350;52.210;5.160;2024-03-25T01:45:22;100813.53;;;7.39;73.25
66524;BME280;53350;52.210;5.160;2024-03-25T01:47:48;100813.53;;;7.38;73.04
66524;BME280;53350;52.210;5.160;2024-03-25T01:50:14;100802.41;;;7.36;73.19
66524;BME280;53350;52.210;5.160;2024-03-25T01:52:41;100802.41;;;7.32;73.18
66524;BME280;53350;52.210;5.160;2024-03-25T01:55:09;100810.97;;;7.31;73.49
66524;BME280;53350;52.210;5.160;2024-03-25T01:57:39;100810.94;;;7.28;73.13
66524;BME280;53350;52.210;5.160;2024-03-25T02:00:06;100818.63;;;7.25;73.07
66524;BME280;53350;52.210;5.160;2024-03-25T02:02:33;100821.19;;;7.22;73.26
66524;BME280;53350;52.210;5.160;2024-03-25T02:05:01;100820.34;;;7.17;73.19
66524;BME280;53350;52.210;5.160;2024-03-25T02:07:29;100799.81;;;6.99;72.89
66524;BME280;53350;52.210;5.160;2024-03-25T02:09:55;100816.91;;;7.07;73.17
66524;BME280;53350;52.210;5.160;2024-03-25T02:12:23;100822.03;;;7.04;72.83
66524;BME280;53350;52.210;5.160;2024-03-25T02:14:49;100823.72;;;7.01;72.92
66524;BME280;53350;52.210;5.160;2024-03-25T02:17:17;100826.28;;;7.01;73.12
66524;BME280;53350;52.210;5.160;2024-03-25T02:19:43;100824.59;;;7.00;72.84
66524;BME280;53350;52.210;5.160;2024-03-25T02:22:10;100828.81;;;6.97;72.92
66524;BME280;53350;52.210;5.160;2024-03-25T02:24:36;100827.09;;;6.96;73.00
66524;BME280;53350;52.210;5.160;2024-03-25T02:27:04;100825.41;;;6.92;73.16
66524;BME280;53350;52.210;5.160;2024-03-25T02:29:33;100826.25;;;6.87;73.22
66524;BME280;53350;52.210;5.160;2024-03-25T02:31:59;100821.13;;;6.90;73.25
66524;BME280;53350;52.210;5.160;2024-03-25T02:34:25;100827.09;;;6.89;72.84
66524;BME280;53350;52.210;5.160;2024-03-25T02:36:52;100817.69;;;6.88;73.39
66524;BME280;53350;52.210;5.160;2024-03-25T02:39:18;100821.97;;;6.87;73.01
66524;BME280;53350;52.210;5.160;2024-03-25T02:41:45;100821.13;;;6.87;73.53
66524;BME280;53350;52.210;5.160;2024-03-25T02:44:13;100819.41;;;6.86;73.47
66524;BME280;53350;52.210;5.160;2024-03-25T02:46:40;100810.00;;;6.85;73.15
66524;BME280;53350;52.210;5.160;2024-03-25T02:49:05;100818.56;;;6.85;73.39
66524;BME280;53350;52.210;5.160;2024-03-25T02:51:32;100815.97;;;6.82;72.96
66524;BME280;53350;52.210;5.160;2024-03-25T02:53:57;100812.56;;;6.80;72.86
66524;BME280;53350;52.210;5.160;2024-03-25T02:56:24;100815.13;;;6.77;73.28
66524;BME280;53350;52.210;5.160;2024-03-25T02:58:49;100813.41;;;6.76;73.46
66524;BME280;53350;52.210;5.160;2024-03-25T03:01:17;100808.28;;;6.73;73.64
66524;BME280;53350;52.210;5.160;2024-03-25T03:03:43;100810.84;;;6.73;73.24
66524;BME280;53350;52.210;5.160;2024-03-25T03:06:09;100806.56;;;6.72;73.90
66524;BME280;53350;52.210;5.160;2024-03-25T03:08:35;100800.59;;;6.71;73.29
66524;BME280;53350;52.210;5.160;2024-03-25T03:11:01;100795.47;;;6.71;73.47
66524;BME280;53350;52.210;5.160;2024-03-25T03:13:27;100791.22;;;6.72;73.56
66524;BME280;53350;52.210;5.160;2024-03-25T03:15:53;100795.47;;;6.71;73.78
66524;BME280;53350;52.210;5.160;2024-03-25T03:18:20;100792.91;;;6.71;73.94
66524;BME280;53350;52.210;5.160;2024-03-25T03:20:46;100790.38;;;6.71;73.86
66524;BME280;53350;52.210;5.160;2024-03-25T03:23:13;100784.41;;;6.69;74.10
66524;BME280;53350;52.210;5.160;2024-03-25T03:25:40;100786.09;;;6.67;73.88
66524;BME280;53350;52.210;5.160;2024-03-25T03:28:05;100792.91;;;6.62;73.58
66524;BME280;53350;52.210;5.160;2024-03-25T03:30:32;100786.91;;;6.57;73.75
66524;BME280;53350;52.210;5.160;2024-03-25T03:32:57;100786.91;;;6.54;73.79
66524;BME280;53350;52.210;5.160;2024-03-25T03:35:25;100788.63;;;6.53;74.09
66524;BME280;53350;52.210;5.160;2024-03-25T03:37:50;100786.91;;;6.54;73.77
66524;BME280;53350;52.210;5.160;2024-03-25T03:40:17;100792.84;;;6.53;73.71
66524;BME280;53350;52.210;5.160;2024-03-25T03:42:43;100790.28;;;6.53;73.78
66524;BME280;53350;52.210;5.160;2024-03-25T03:45:09;100788.63;;;6.52;74.18
66524;BME280;53350;52.210;5.160;2024-03-25T03:47:35;100790.28;;;6.50;73.79
66524;BME280;53350;52.210;5.160;2024-03-25T03:50:02;100784.31;;;6.48;73.70
66524;BME280;53350;52.210;5.160;2024-03-25T03:52:28;100783.44;;;6.46;73.36
66524;BME280;53350;52.210;5.160;2024-03-25T03:54:55;100770.66;;;6.44;73.22
66524;BME280;53350;52.210;5.160;2024-03-25T03:57:20;100771.53;;;6.44;73.26
66524;BME280;53350;52.210;5.160;2024-03-25T03:59:47;100775.75;;;6.41;73.60
66524;BME280;53350;52.210;5.160;2024-03-25T04:02:12;100773.19;;;6.36;73.27
66524;BME280;53350;52.210;5.160;2024-03-25T04:04:39;100773.19;;;6.35;73.62
66524;BME280;53350;52.210;5.160;2024-03-25T04:07:05;100773.19;;;6.33;73.48
66524;BME280;53350;52.210;5.160;2024-03-25T04:09:33;100773.19;;;6.32;73.47
66524;BME280;53350;52.210;5.160;2024-03-25T04:11:58;100778.28;;;6.29;73.73
66524;BME280;53350;52.210;5.160;2024-03-25T04:14:26;100774.84;;;6.25;73.38
66524;BME280;53350;52.210;5.160;2024-03-25T04:16:51;100779.94;;;6.23;73.42
66524;BME280;53350;52.210;5.160;2024-03-25T04:19:18;100779.94;;;6.20;73.56
66524;BME280;53350;52.210;5.160;2024-03-25T04:21:44;100774.81;;;6.19;73.34
66524;BME280;53350;52.210;5.160;2024-03-25T04:24:10;100777.38;;;6.19;73.10
66524;BME280;53350;52.210;5.160;2024-03-25T04:26:37;100777.38;;;6.16;73.54
66524;BME280;53350;52.210;5.160;2024-03-25T04:29:03;100772.25;;;6.14;72.84
66524;BME280;53350;52.210;5.160;2024-03-25T04:31:29;100780.75;;;6.12;73.41
66524;BME280;53350;52.210;5.160;2024-03-25T04:33:55;100771.34;;;6.07;73.46
66524;BME280;53350;52.210;5.160;2024-03-25T04:36:21;100777.31;;;6.05;73.03
66524;BME280;53350;52.210;5.160;2024-03-25T04:38:47;100779.00;;;6.03;73.24
66524;BME280;53350;52.210;5.160;2024-03-25T04:41:12;100779.00;;;6.00;73.25
66524;BME280;53350;52.210;5.160;2024-03-25T04:43:39;100779.81;;;5.97;73.21
66524;BME280;53350;52.210;5.160;2024-03-25T04:46:05;100785.78;;;5.98;73.25
66524;BME280;53350;52.210;5.160;2024-03-25T04:48:30;100785.75;;;5.96;73.42
66524;BME280;53350;52.210;5.160;2024-03-25T04:50:56;100785.75;;;5.95;73.16
66524;BME280;53350;52.210;5.160;2024-03-25T04:53:21;100787.44;;;5.94;73.40
66524;BME280;53350;52.210;5.160;2024-03-25T04:55:47;100775.50;;;5.91;73.35
66524;BME280;53350;52.210;5.160;2024-03-25T04:58:12;100784.00;;;5.92;73.73
66524;BME280;53350;52.210;5.160;2024-03-25T05:00:39;100778.03;;;5.90;73.29
66524;BME280;53350;52.210;5.160;2024-03-25T05:03:05;100783.16;;;5.88;73.34
66524;BME280;53350;52.210;5.160;2024-03-25T05:05:30;100790.81;;;5.88;73.82
66524;BME280;53350;52.210;5.160;2024-03-25T05:07:56;100790.81;;;5.87;73.31
66524;BME280;53350;52.210;5.160;2024-03-25T05:10:21;100789.94;;;5.85;73.68
66524;BME280;53350;52.210;5.160;2024-03-25T05:12:47;100788.22;;;5.82;73.44
66524;BME280;53350;52.210;5.160;2024-03-25T05:15:13;100790.78;;;5.82;73.42
66524;BME280;53350;52.210;5.160;2024-03-25T05:17:40;100792.47;;;5.80;73.65
66524;BME280;53350;52.210;5.160;2024-03-25T05:20:06;100791.63;;;5.81;73.68
66524;BME280;53350;52.210;5.160;2024-03-25T05:22:31;100805.25;;;5.83;73.95
66524;BME280;53350;52.210;5.160;2024-03-25T05:24:57;100809.53;;;5.84;74.05
66524;BME280;53350;52.210;5.160;2024-03-25T05:27:22;100806.16;;;5.85;73.92
66524;BME280;53350;52.210;5.160;2024-03-25T05:29:48;100809.53;;;5.86;74.32
66524;BME280;53350;52.210;5.160;2024-03-25T05:32:14;100817.22;;;5.86;74.07
66524;BME280;53350;52.210;5.160;2024-03-25T05:34:41;100807.84;;;5.86;74.41
66524;BME280;53350;52.210;5.160;2024-03-25T05:37:06;100809.56;;;5.90;74.48
66524;BME280;53350;52.210;5.160;2024-03-25T05:39:32;100812.13;;;5.90;74.80
66524;BME280;53350;52.210;5.160;2024-03-25T05:41:57;100810.44;;;5.92;75.00
66524;BME280;53350;52.210;5.160;2024-03-25T05:44:23;100803.63;;;5.96;74.90
66524;BME280;53350;52.210;5.160;2024-03-25T05:46:49;100803.69;;;5.98;74.83
66524;BME280;53350;52.210;5.160;2024-03-25T05:49:14;100797.72;;;5.99;75.19
66524;BME280;53350;52.210;5.160;2024-03-25T05:51:41;100801.13;;;5.99;75.06
66524;BME280;53350;52.210;5.160;2024-03-25T05:54:06;100808.81;;;6.02;75.10
66524;BME280;53350;52.210;5.160;2024-03-25T05:56:32;100798.59;;;6.04;74.96
66524;BME280;53350;52.210;5.160;2024-03-25T05:58:58;100796.91;;;6.04;75.25
66524;BME280;53350;52.210;5.160;2024-03-25T06:01:23;100799.47;;;6.07;74.97
66524;BME280;53350;52.210;5.160;2024-03-25T06:03:49;100792.66;;;6.08;75.03
66524;BME280;53350;52.210;5.160;2024-03-25T06:06:15;100788.41;;;6.10;74.95
66524;BME280;53350;52.210;5.160;2024-03-25T06:08:41;100794.38;;;6.12;75.52
66524;BME280;53350;52.210;5.160;2024-03-25T06:11:07;100788.44;;;6.12;75.47
66524;BME280;53350;52.210;5.160;2024-03-25T06:13:33;100788.44;;;6.15;74.91
66524;BME280;53350;52.210;5.160;2024-03-25T06:15:58;100785.88;;;6.15;75.02
66524;BME280;53350;52.210;5.160;2024-03-25T06:18:24;100784.16;;;6.15;75.19
66524;BME280;53350;52.210;5.160;2024-03-25T06:20:49;100790.16;;;6.17;75.55
66524;BME280;53350;52.210;5.160;2024-03-25T06:23:22;100791.84;;;6.18;75.66
66524;BME280;53350;52.210;5.160;2024-03-25T06:25:49;100788.47;;;6.21;75.53
66524;BME280;53350;52.210;5.160;2024-03-25T06:28:15;100791.03;;;6.25;75.82
66524;BME280;53350;52.210;5.160;2024-03-25T06:30:40;100782.53;;;6.30;75.76
66524;BME280;53350;52.210;5.160;2024-03-25T06:33:24;100785.09;;;6.34;75.62
66524;BME280;53350;52.210;5.160;2024-03-25T06:36:08;100780.03;;;6.42;76.00
66524;BME280;53350;52.210;5.160;2024-03-25T06:38:34;100784.34;;;6.49;75.92
66524;BME280;53350;52.210;5.160;2024-03-25T06:41:00;100774.13;;;6.58;76.73
66524;BME280;53350;52.210;5.160;2024-03-25T06:43:26;100777.56;;;6.68;76.81
66524;BME280;53350;52.210;5.160;2024-03-25T06:45:51;100784.41;;;6.78;76.88
66524;BME280;53350;52.210;5.160;2024-03-25T06:48:17;100775.91;;;6.90;76.62
66524;BME280;53350;52.210;5.160;2024-03-25T06:50:52;100767.38;;;7.02;76.48
66524;BME280;53350;52.210;5.160;2024-03-25T06:53:17;100775.06;;;7.16;76.56
66524;BME280;53350;52.210;5.160;2024-03-25T06:55:50;100778.50;;;7.29;77.01
66524;BME280;53350;52.210;5.160;2024-03-25T06:58:18;100772.50;;;7.44;76.80
66524;BME280;53350;52.210;5.160;2024-03-25T07:00:44;100781.06;;;7.57;77.09
66524;BME280;53350;52.210;5.160;2024-03-25T07:03:09;100773.38;;;7.69;76.96
66524;BME280;53350;52.210;5.160;2024-03-25T07:05:35;100769.91;;;7.81;77.06
66524;BME280;53350;52.210;5.160;2024-03-25T07:08:00;100768.16;;;7.97;77.03
66524;BME280;53350;52.210;5.160;2024-03-25T07:10:26;100768.97;;;8.14;77.26
66524;BME280;53350;52.210;5.160;2024-03-25T07:12:51;100768.91;;;8.34;77.32
66524;BME280;53350;52.210;5.160;2024-03-25T07:15:18;100763.72;;;8.53;77.23
66524;BME280;53350;52.210;5.160;2024-03-25T07:17:44;100767.06;;;8.69;77.14
66524;BME280;53350;52.210;5.160;2024-03-25T07:20:10;100772.06;;;8.84;76.86
66524;BME280;53350;52.210;5.160;2024-03-25T07:22:35;100777.97;;;8.99;76.70
66524;BME280;53350;52.210;5.160;2024-03-25T07:25:01;100776.19;;;9.10;76.49
66524;BME280;53350;52.210;5.160;2024-03-25T07:27:27;100776.13;;;9.19;76.03
66524;BME280;53350;52.210;5.160;2024-03-25T07:29:52;100774.31;;;9.31;75.81
66524;BME280;53350;52.210;5.160;2024-03-25T07:32:19;100777.63;;;9.44;75.89
66524;BME280;53350;52.210;5.160;2024-03-25T07:34:44;100779.22;;;9.57;76.20
66524;BME280;53350;52.210;5.160;2024-03-25T07:37:10;100774.00;;;9.68;75.93
66524;BME280;53350;52.210;5.160;2024-03-25T07:39:35;100780.69;;;9.84;76.02
66524;BME280;53350;52.210;5.160;2024-03-25T07:42:01;100783.16;;;9.97;75.28
66524;BME280;53350;52.210;5.160;2024-03-25T07:44:26;100771.00;;;10.09;74.50
66524;BME280;53350;52.210;5.160;2024-03-25T07:46:52;100780.31;;;10.20;74.73
66524;BME280;53350;52.210;5.160;2024-03-25T07:49:19;100775.94;;;10.26;74.38
66524;BME280;53350;52.210;5.160;2024-03-25T07:51:44;100775.88;;;10.36;74.10
66524;BME280;53350;52.210;5.160;2024-03-25T07:54:10;100786.88;;;10.49;73.76
66524;BME280;53350;52.210;5.160;2024-03-25T07:56:36;100780.66;;;10.64;73.75
66524;BME280;53350;52.210;5.160;2024-03-25T07:59:01;100778.72;;;10.78;73.23
66524;BME280;53350;52.210;5.160;2024-03-25T08:01:27;100776.78;;;10.94;72.97
66524;BME280;53350;52.210;5.160;2024-03-25T08:03:52;100783.44;;;11.07;73.83
66524;BME280;53350;52.210;5.160;2024-03-25T08:06:19;100780.75;;;11.17;72.30
66524;BME280;53350;52.210;5.160;2024-03-25T08:08:45;100787.47;;;11.24;72.14
66524;BME280;53350;52.210;5.160;2024-03-25T08:11:10;100780.47;;;11.34;72.32
66524;BME280;53350;52.210;5.160;2024-03-25T08:13:36;100783.69;;;11.46;71.23
66524;BME280;53350;52.210;5.160;2024-03-25T08:16:02;100784.34;;;11.59;71.24
66524;BME280;53350;52.210;5.160;2024-03-25T08:18:27;100796.19;;;11.70;71.12
66524;BME280;53350;52.210;5.160;2024-03-25T08:20:53;100796.00;;;11.80;71.23
66524;BME280;53350;52.210;5.160;2024-03-25T08:23:20;100798.53;;;11.83;70.72
66524;BME280;53350;52.210;5.160;2024-03-25T08:25:45;100796.66;;;11.90;69.96
66524;BME280;53350;52.210;5.160;2024-03-25T08:28:11;100799.22;;;11.93;69.58
66524;BME280;53350;52.210;5.160;2024-03-25T08:30:36;100795.78;;;11.94;69.52
66524;BME280;53350;52.210;5.160;2024-03-25T08:33:02;100781.88;;;12.02;68.98
66524;BME280;53350;52.210;5.160;2024-03-25T08:35:28;100782.56;;;12.11;68.94
66524;BME280;53350;52.210;5.160;2024-03-25T08:37:53;100785.00;;;12.17;67.65
66524;BME280;53350;52.210;5.160;2024-03-25T08:40:20;100779.78;;;12.21;67.48
66524;BME280;53350;52.210;5.160;2024-03-25T08:42:46;100777.94;;;12.27;67.88
66524;BME280;53350;52.210;5.160;2024-03-25T08:45:11;100779.47;;;12.36;68.39
66524;BME280;53350;52.210;5.160;2024-03-25T08:47:37;100771.63;;;12.41;66.48
66524;BME280;53350;52.210;5.160;2024-03-25T08:50:04;100774.94;;;12.47;65.76
66524;BME280;53350;52.210;5.160;2024-03-25T08:52:29;100779.13;;;12.53;63.81
66524;BME280;53350;52.210;5.160;2024-03-25T08:54:55;100778.19;;;12.56;64.61
66524;BME280;53350;52.210;5.160;2024-03-25T08:57:22;100774.63;;;12.61;64.49
66524;BME280;53350;52.210;5.160;2024-03-25T08:59:47;100767.59;;;12.68;64.45
66524;BME280;53350;52.210;5.160;2024-03-25T09:02:13;100761.38;;;12.77;63.50
66524;BME280;53350;52.210;5.160;2024-03-25T09:04:38;100768.03;;;12.87;62.62
66524;BME280;53350;52.210;5.160;2024-03-25T09:07:04;100769.63;;;12.93;61.53
66524;BME280;53350;52.210;5.160;2024-03-25T09:09:29;100770.63;;;12.87;62.70
66524;BME280;53350;52.210;5.160;2024-03-25T09:12:13;100767.44;;;12.74;62.18
66524;BME280;53350;52.210;5.160;2024-03-25T09:14:40;100756.31;;;12.72;61.94
66524;BME280;53350;52.210;5.160;2024-03-25T09:17:06;100762.47;;;12.66;62.52
66524;BME280;53350;52.210;5.160;2024-03-25T09:19:31;100758.28;;;12.61;62.80
66524;BME280;53350;52.210;5.160;2024-03-25T09:21:57;100756.63;;;12.57;62.34
66524;BME280;53350;52.210;5.160;2024-03-25T09:24:22;100753.25;;;12.55;62.64
66524;BME280;53350;52.210;5.160;2024-03-25T09:26:49;100753.38;;;12.50;61.91
66524;BME280;53350;52.210;5.160;2024-03-25T09:29:15;100757.78;;;12.43;62.24
66524;BME280;53350;52.210;5.160;2024-03-25T09:31:42;100743.09;;;12.45;62.78
66524;BME280;53350;52.210;5.160;2024-03-25T09:34:08;100748.50;;;12.34;62.60
66524;BME280;53350;52.210;5.160;2024-03-25T09:36:33;100743.31;;;12.36;62.73
66524;BME280;53350;52.210;5.160;2024-03-25T09:38:59;100741.47;;;12.43;62.77
66524;BME280;53350;52.210;5.160;2024-03-25T09:41:25;100742.22;;;12.46;62.94
66524;BME280;53350;52.210;5.160;2024-03-25T09:43:55;100742.91;;;12.55;62.78
66524;BME280;53350;52.210;5.160;2024-03-25T09:46:21;100741.69;;;12.71;62.66
66524;BME280;53350;52.210;5.160;2024-03-25T09:48:49;100738.81;;;12.83;62.36
66524;BME280;53350;52.210;5.160;2024-03-25T09:51:17;100729.97;;;12.94;61.58
66524;BME280;53350;52.210;5.160;2024-03-25T09:53:44;100736.66;;;13.02;61.57
66524;BME280;53350;52.210;5.160;2024-03-25T09:56:09;100720.84;;;13.13;61.04
66524;BME280;53350;52.210;5.160;2024-03-25T09:58:35;100728.53;;;13.18;60.77
66524;BME280;53350;52.210;5.160;2024-03-25T10:01:01;100716.47;;;13.17;61.07
66524;BME280;53350;52.210;5.160;2024-03-25T10:03:27;100719.03;;;13.18;59.66
66524;BME280;53350;52.210;5.160;2024-03-25T10:05:54;100717.19;;;13.22;59.90
66524;BME280;53350;52.210;5.160;2024-03-25T10:08:20;100718.06;;;13.22;59.56
66524;BME280;53350;52.210;5.160;2024-03-25T10:10:46;100711.13;;;13.23;60.40
66524;BME280;53350;52.210;5.160;2024-03-25T10:13:11;100701.66;;;13.22;59.50
66524;BME280;53350;52.210;5.160;2024-03-25T10:15:37;100701.88;;;13.14;58.67
66524;BME280;53350;52.210;5.160;2024-03-25T10:18:02;100699.38;;;13.11;58.73
66524;BME280;53350;52.210;5.160;2024-03-25T10:20:28;100708.84;;;13.12;58.16
66524;BME280;53350;52.210;5.160;2024-03-25T10:22:55;100703.59;;;13.15;58.38
66524;BME280;53350;52.210;5.160;2024-03-25T10:25:22;100700.06;;;13.18;59.08
66524;BME280;53350;52.210;5.160;2024-03-25T10:27:54;100697.31;;;13.24;58.79
66524;BME280;53350;52.210;5.160;2024-03-25T10:30:20;100697.88;;;13.37;58.23
66524;BME280;53350;52.210;5.160;2024-03-25T10:32:45;100694.25;;;13.44;58.53
66524;BME280;53350;52.210;5.160;2024-03-25T10:35:11;100683.66;;;13.53;57.78
66524;BME280;53350;52.210;5.160;2024-03-25T10:37:39;100686.97;;;13.59;57.91
66524;BME280;53350;52.210;5.160;2024-03-25T10:40:07;100680.88;;;13.60;57.57
66524;BME280;53350;52.210;5.160;2024-03-25T10:42:38;100667.38;;;13.48;57.62
66524;BME280;53350;52.210;5.160;2024-03-25T10:45:05;100670.38;;;13.66;57.19
66524;BME280;53350;52.210;5.160;2024-03-25T10:47:33;100670.09;;;13.75;56.63
66524;BME280;53350;52.210;5.160;2024-03-25T10:50:05;100674.22;;;13.82;57.87
66524;BME280;53350;52.210;5.160;2024-03-25T10:52:33;100668.84;;;13.88;56.58
66524;BME280;53350;52.210;5.160;2024-03-25T10:55:00;100670.47;;;13.93;56.85
66524;BME280;53350;52.210;5.160;2024-03-25T10:57:28;100667.19;;;13.86;55.98
66524;BME280;53350;52.210;5.160;2024-03-25T10:59:55;100666.75;;;13.71;55.20
66524;BME280;53350;52.210;5.160;2024-03-25T11:02:22;100661.09;;;13.88;55.90
66524;BME280;53350;52.210;5.160;2024-03-25T11:04:49;100654.97;;;13.91;56.22
66524;BME280;53350;52.210;5.160;2024-03-25T11:07:15;100650.53;;;13.96;55.05
66524;BME280;53350;52.210;5.160;2024-03-25T11:09:42;100655.63;;;13.99;55.36
66524;BME280;53350;52.210;5.160;2024-03-25T11:12:10;100649.41;;;14.05;55.39
66524;BME280;53350;52.210;5.160;2024-03-25T11:14:37;100650.09;;;14.10;54.04
66524;BME280;53350;52.210;5.160;2024-03-25T11:17:03;100645.75;;;14.12;53.29
66524;BME280;53350;52.210;5.160;2024-03-25T11:19:39;100652.88;;;14.04;54.61
66524;BME280;53350;52.210;5.160;2024-03-25T11:22:09;100646.72;;;14.08;54.62
66524;BME280;53350;52.210;5.160;2024-03-25T11:24:35;100637.97;;;14.12;53.29
66524;BME280;53350;52.210;5.160;2024-03-25T11:27:05;100632.84;;;14.09;53.41
66524;BME280;53350;52.210;5.160;2024-03-25T11:29:31;100628.75;;;14.02;52.86
66524;BME280;53350;52.210;5.160;2024-03-25T11:32:00;100626.94;;;14.05;53.14
66524;BME280;53350;52.210;5.160;2024-03-25T11:34:28;100621.72;;;14.07;52.78
66524;BME280;53350;52.210;5.160;2024-03-25T11:36:54;100625.81;;;14.14;52.04
66524;BME280;53350;52.210;5.160;2024-03-25T11:39:19;100620.38;;;14.22;51.54
66524;BME280;53350;52.210;5.160;2024-03-25T11:41:45;100610.53;;;14.33;51.05
66524;BME280;53350;52.210;5.160;2024-03-25T11:44:11;100600.03;;;14.38;50.69
66524;BME280;53350;52.210;5.160;2024-03-25T11:46:38;100606.81;;;14.42;49.34
66524;BME280;53350;52.210;5.160;2024-03-25T11:49:06;100604.31;;;14.39;48.76
66524;BME280;53350;52.210;5.160;2024-03-25T11:51:32;100605.81;;;14.46;49.53
66524;BME280;53350;52.210;5.160;2024-03-25T11:53:58;100604.22;;;14.42;48.38
66524;BME280;53350;52.210;5.160;2024-03-25T11:56:24;100600.03;;;14.38;47.45
66524;BME280;53350;52.210;5.160;2024-03-25T11:58:50;100587.31;;;14.30;48.81
66524;BME280;53350;52.210;5.160;2024-03-25T12:01:15;100587.47;;;14.25;48.07
66524;BME280;53350;52.210;5.160;2024-03-25T12:03:41;100580.69;;;14.21;48.52
66524;BME280;53350;52.210;5.160;2024-03-25T12:06:08;100582.44;;;14.21;48.79
66524;BME280;53350;52.210;5.160;2024-03-25T12:08:33;100574.66;;;14.21;49.20
66524;BME280;53350;52.210;5.160;2024-03-25T12:10:59;100572.63;;;14.31;48.95
66524;BME280;53350;52.210;5.160;2024-03-25T12:13:43;100561.34;;;14.32;48.73
66524;BME280;53350;52.210;5.160;2024-03-25T12:16:09;100541.53;;;14.31;48.82
66524;BME280;53350;52.210;5.160;2024-03-25T12:18:35;100550.69;;;14.41;49.50
66524;BME280;53350;52.210;5.160;2024-03-25T12:21:01;100547.03;;;14.47;50.19
66524;BME280;53350;52.210;5.160;2024-03-25T12:23:29;100543.16;;;14.60;48.64
66524;BME280;53350;52.210;5.160;2024-03-25T12:25:55;100543.03;;;14.65;48.42
66524;BME280;53350;52.210;5.160;2024-03-25T12:28:21;100546.56;;;14.62;47.51
66524;BME280;53350;52.210;5.160;2024-03-25T12:30:51;100546.16;;;14.48;48.23
66524;BME280;53350;52.210;5.160;2024-03-25T12:33:17;100549.50;;;14.51;48.14
66524;BME280;53350;52.210;5.160;2024-03-25T12:35:45;100537.97;;;14.62;47.96
66524;BME280;53350;52.210;5.160;2024-03-25T12:38:24;100543.72;;;14.70;48.31
66524;BME280;53350;52.210;5.160;2024-03-25T12:40:51;100534.63;;;14.83;47.45
66524;BME280;53350;52.210;5.160;2024-03-25T12:43:17;100528.38;;;14.89;47.20
66524;BME280;53350;52.210;5.160;2024-03-25T12:45:43;100535.25;;;14.90;46.75
66524;BME280;53350;52.210;5.160;2024-03-25T12:48:08;100526.50;;;14.92;46.00
66524;BME280;53350;52.210;5.160;2024-03-25T12:50:34;100523.63;;;15.00;45.48